Terminal Aerodrome Forecast
Issued by NWS Medford, OR

Home | Current Version | Previous Version | Text Only | Print | Product List | Glossary On
Versions: 1 2 3 4 5 6 7 8 9 10 11 12 13 14
000
FTUS46 KMFR 240500
TAFMFR
TAF
KMFR 240538Z 2406/2506 VRB06KT P6SM -SHRA SCT040 OVC060
     FM241100 25007KT P6SM -RA SCT025 OVC040
     FM241700 29011KT P6SM -SHRA SCT030 OVC050
     FM250200 31007KT P6SM -RA SCT015 OVC025=

USA.gov is the U.S. government's official web portal to all federal, state and local government web resources and services.